Time;durP1;ratioP1;P1;durP2;ratioP2;P2;SDS_P1;SDS_P2;PMS_P1;PMS_P2;Temp;Humidity;BMP_temperature;BMP_pressure;BME280_temperature;BME280_humidity;BME280_pressure;Samples;Min_cycle;Max_cycle;Signal;HPM_P1;HPM_P2
2022/10/18 00:00:17;;;;;;;7.60;6.00;;;22.60;67.80;;;;;;5039889;28;20451;-80
2022/10/18 00:02:45;;;;;;;8.00;5.90;;;22.60;67.70;;;;;;5050540;28;20485;-81
2022/10/18 00:05:12;;;;;;;6.43;5.83;;;22.60;67.70;;;;;;5043400;28;20442;-81
2022/10/18 00:07:40;;;;;;;6.47;5.57;;;22.60;67.50;;;;;;5043371;28;20478;-80
2022/10/18 00:10:10;;;;;;;5.80;5.30;;;22.60;67.70;;;;;;5043648;28;20526;-81
2022/10/18 00:12:38;;;;;;;6.03;5.47;;;22.50;67.50;;;;;;5044435;28;20455;-81
2022/10/18 00:15:07;;;;;;;6.50;5.50;;;22.50;67.60;;;;;;5043426;28;20435;-81
2022/10/18 00:17:35;;;;;;;5.70;5.20;;;22.50;67.70;;;;;;5042969;28;20467;-80
2022/10/18 00:20:03;;;;;;;5.73;5.23;;;22.50;67.70;;;;;;5041016;28;20450;-80
2022/10/18 00:22:33;;;;;;;5.80;5.30;;;22.50;67.60;;;;;;5039440;28;20475;-79
2022/10/18 00:25:01;;;;;;;6.00;5.40;;;22.50;67.50;;;;;;5037903;28;20471;-80
2022/10/18 00:27:31;;;;;;;6.17;5.57;;;22.50;68.40;;;;;;5022149;28;20447;-80
2022/10/18 00:29:59;;;;;;;5.90;5.17;;;22.50;67.70;;;;;;5041407;28;20421;-81
2022/10/18 00:32:27;;;;;;;5.73;5.27;;;22.50;67.70;;;;;;5039903;28;20530;-80
2022/10/18 00:34:55;;;;;;;5.70;5.30;;;22.50;67.70;;;;;;5040413;28;20489;-80
2022/10/18 00:37:23;;;;;;;6.27;5.50;;;22.50;67.80;;;;;;5039469;28;20445;-80
2022/10/18 00:39:51;;;;;;;6.00;5.50;;;22.40;67.60;;;;;;5037652;28;20447;-81
2022/10/18 00:42:26;;;;;;;8.30;5.90;;;22.40;67.60;;;;;;5037349;28;20989;-81
2022/10/18 00:45:18;;;;;;;7.10;5.97;;;22.40;67.70;;;;;;5034600;28;20452;-81
2022/10/18 00:47:49;;;;;;;6.30;5.70;;;22.40;67.50;;;;;;5028077;28;20443;-82
2022/10/18 00:50:16;;;;;;;5.70;5.20;;;22.40;67.90;;;;;;5037643;28;20448;-81
2022/10/18 00:52:47;;;;;;;5.70;5.20;;;22.40;67.80;;;;;;5035012;28;20450;-82
2022/10/18 00:55:15;;;;;;;5.97;5.47;;;22.40;67.80;;;;;;5035674;28;20458;-81
2022/10/18 00:57:43;;;;;;;6.03;5.50;;;22.40;67.80;;;;;;5039342;28;20464;-82
2022/10/18 01:00:12;;;;;;;9.53;5.53;;;22.40;67.80;;;;;;5038662;28;20461;-81
2022/10/18 01:02:43;;;;;;;5.80;5.20;;;22.30;67.80;;;;;;5037393;28;20475;-80
2022/10/18 01:05:12;;;;;;;5.50;5.00;;;22.30;67.80;;;;;;5039201;28;20451;-81
2022/10/18 01:07:55;;;;;;;5.93;5.20;;;22.30;67.90;;;;;;5038956;28;20477;-81
2022/10/18 01:10:27;;;;;;;5.53;5.03;;;22.40;67.80;;;;;;5032449;28;20447;-82
2022/10/18 01:13:03;;;;;;;5.50;5.03;;;22.30;67.70;;;;;;5029598;28;20476;-81
2022/10/18 01:15:34;;;;;;;6.10;5.10;;;22.30;67.80;;;;;;5026071;28;20427;-81
2022/10/18 01:18:08;;;;;;;4.97;4.53;;;22.30;67.90;;;;;;5030559;28;20467;-80
2022/10/18 01:21:07;;;;;;;5.67;5.10;;;22.30;67.90;;;;;;5032092;28;20551;-80
2022/10/18 01:23:55;;;;;;;5.13;4.73;;;22.30;67.60;;;;;;5034715;28;20459;-81
2022/10/18 01:26:36;;;;;;;5.00;4.60;;;22.30;67.70;;;;;;5030921;28;20455;-81
2022/10/18 01:29:14;;;;;;;6.00;4.80;;;22.30;67.80;;;;;;5032047;28;20487;-81
2022/10/18 01:31:45;;;;;;;5.00;4.60;;;22.20;68.00;;;;;;5031170;28;20453;-80
2022/10/18 01:34:14;;;;;;;5.87;4.87;;;22.20;68.50;;;;;;5038040;28;20448;-82
2022/10/18 01:36:42;;;;;;;5.47;5.00;;;22.20;68.00;;;;;;5035367;28;20451;-82
2022/10/18 01:39:13;;;;;;;5.87;5.27;;;22.20;67.90;;;;;;5036766;28;20555;-80
2022/10/18 01:41:42;;;;;;;5.50;5.00;;;22.20;68.10;;;;;;5036180;28;20471;-80
2022/10/18 01:44:12;;;;;;;5.20;4.80;;;22.20;68.00;;;;;;5030608;28;20462;-80
2022/10/18 01:46:41;;;;;;;11.33;4.90;;;22.20;67.90;;;;;;5036464;28;20440;-81
2022/10/18 01:49:11;;;;;;;6.60;4.63;;;22.20;67.80;;;;;;5035035;28;20535;-80
2022/10/18 01:51:39;;;;;;;5.47;4.97;;;22.20;67.60;;;;;;5020185;28;20502;-81
2022/10/18 01:54:07;;;;;;;5.50;4.87;;;22.20;67.90;;;;;;5035048;28;20442;-81
2022/10/18 01:56:41;;;;;;;5.43;4.93;;;22.20;68.00;;;;;;5036353;28;20426;-82
2022/10/18 01:59:19;;;;;;;5.97;5.30;;;22.20;67.80;;;;;;5034190;28;20465;-82
2022/10/18 02:01:53;;;;;;;4.90;4.50;;;22.20;67.80;;;;;;5036487;28;20467;-81
2022/10/18 02:04:31;;;;;;;7.33;4.83;;;22.10;67.80;;;;;;5032855;28;20451;-80
2022/10/18 02:07:06;;;;;;;5.20;4.73;;;22.20;67.90;;;;;;5033564;28;20538;-81
2022/10/18 02:09:38;;;;;;;5.10;4.70;;;22.10;67.80;;;;;;5032561;28;20534;-82
2022/10/18 02:12:07;;;;;;;5.30;4.90;;;22.10;68.00;;;;;;5041445;28;20478;-82
2022/10/18 02:14:35;;;;;;;5.30;4.80;;;22.10;67.90;;;;;;5046888;28;20451;-82
2022/10/18 02:17:04;;;;;;;6.23;4.80;;;22.10;68.00;;;;;;5034811;28;20419;-81
2022/10/18 02:19:35;;;;;;;4.77;4.40;;;22.10;67.90;;;;;;5042233;28;20473;-82
2022/10/18 02:22:03;;;;;;;5.17;4.50;;;22.10;67.80;;;;;;5045418;28;20471;-82
2022/10/18 02:24:33;;;;;;;7.90;5.30;;;22.10;68.00;;;;;;5044655;28;20459;-82
2022/10/18 02:27:01;;;;;;;5.30;4.90;;;22.10;68.00;;;;;;5043796;28;20459;-82
2022/10/18 02:29:30;;;;;;;5.10;4.60;;;22.10;67.80;;;;;;5044919;28;20451;-81
2022/10/18 02:32:01;;;;;;;4.97;4.57;;;22.10;67.90;;;;;;5046094;28;20463;-84
2022/10/18 02:34:34;;;;;;;4.93;4.53;;;22.10;67.90;;;;;;5036705;28;20456;-82
2022/10/18 02:37:02;;;;;;;5.13;4.73;;;22.10;67.80;;;;;;5041732;28;20442;-82
2022/10/18 02:39:32;;;;;;;5.13;4.73;;;22.10;67.70;;;;;;5044539;28;20482;-81
2022/10/18 02:42:00;;;;;;;5.03;4.63;;;22.10;67.70;;;;;;5044762;28;21039;-82
2022/10/18 02:44:29;;;;;;;5.20;4.80;;;22.10;67.90;;;;;;5044967;28;20458;-82
2022/10/18 02:46:57;;;;;;;4.80;4.40;;;22.10;67.90;;;;;;5044471;28;20432;-83
2022/10/18 02:49:25;;;;;;;4.77;4.37;;;22.10;68.10;;;;;;5039822;28;20455;-82
2022/10/18 02:51:55;;;;;;;4.90;4.50;;;22.10;67.80;;;;;;5039396;28;20461;-82
2022/10/18 02:54:23;;;;;;;4.60;4.20;;;22.10;67.80;;;;;;5038619;28;20451;-82
2022/10/18 02:56:51;;;;;;;5.23;4.73;;;22.10;68.00;;;;;;5020719;28;20448;-82
2022/10/18 02:59:20;;;;;;;6.10;4.90;;;22.10;68.00;;;;;;5024583;28;20517;-81
2022/10/18 03:01:47;;;;;;;5.27;4.77;;;22.10;68.00;;;;;;5029546;28;20446;-81
2022/10/18 03:04:16;;;;;;;5.20;4.30;;;22.10;67.80;;;;;;5034407;28;20538;-81
2022/10/18 03:06:44;;;;;;;6.90;4.63;;;22.10;68.00;;;;;;5029535;28;20456;-82
2022/10/18 03:09:13;;;;;;;5.10;4.60;;;22.10;67.80;;;;;;5029996;28;20426;-82
2022/10/18 03:11:41;;;;;;;4.97;4.57;;;22.10;68.00;;;;;;5030034;28;20438;-80
2022/10/18 03:14:10;;;;;;;6.93;4.30;;;22.10;67.80;;;;;;5037277;28;20462;-80
2022/10/18 03:16:38;;;;;;;5.10;4.60;;;22.10;67.80;;;;;;5037843;28;20459;-80
2022/10/18 03:19:06;;;;;;;4.67;4.27;;;22.10;67.70;;;;;;5038101;28;20463;-81
2022/10/18 03:21:34;;;;;;;4.43;4.13;;;22.10;68.00;;;;;;5038584;28;20448;-82
2022/10/18 03:24:02;;;;;;;5.10;4.60;;;22.10;68.00;;;;;;5036392;28;20471;-81
2022/10/18 03:26:32;;;;;;;4.40;4.10;;;22.10;67.90;;;;;;5036669;28;20440;-81
2022/10/18 03:29:00;;;;;;;4.70;4.27;;;22.10;67.90;;;;;;5037156;28;20449;-80
2022/10/18 03:31:29;;;;;;;4.90;4.50;;;22.00;67.80;;;;;;5037912;28;20453;-81
2022/10/18 03:33:57;;;;;;;4.30;4.00;;;22.00;68.10;;;;;;5031057;28;20518;-82
2022/10/18 03:36:25;;;;;;;3.73;3.53;;;22.00;67.80;;;;;;5039230;28;20454;-82
2022/10/18 03:38:53;;;;;;;4.90;4.50;;;22.10;68.00;;;;;;5039576;28;20475;-81
2022/10/18 03:41:22;;;;;;;4.47;4.17;;;22.10;67.80;;;;;;5039649;28;20435;-82
2022/10/18 03:43:51;;;;;;;4.37;4.00;;;22.10;67.60;;;;;;5025266;28;20455;-82
2022/10/18 03:46:20;;;;;;;4.40;4.00;;;22.00;67.80;;;;;;5027951;28;20434;-81
2022/10/18 03:48:48;;;;;;;4.30;4.00;;;22.10;67.80;;;;;;5038274;28;20451;-82
2022/10/18 03:51:17;;;;;;;4.80;4.40;;;22.00;67.90;;;;;;5038322;28;20462;-82
2022/10/18 03:53:45;;;;;;;4.40;4.10;;;22.00;67.80;;;;;;5037883;28;20459;-81
2022/10/18 03:56:13;;;;;;;4.93;4.53;;;22.00;67.80;;;;;;5038644;28;20450;-82
2022/10/18 03:58:41;;;;;;;4.27;3.87;;;22.00;67.90;;;;;;5029694;28;20458;-81
2022/10/18 04:01:11;;;;;;;4.10;3.80;;;22.00;67.80;;;;;;5024187;28;20519;-80
2022/10/18 04:03:39;;;;;;;4.70;4.30;;;22.00;67.90;;;;;;5029392;28;20444;-80
2022/10/18 04:06:08;;;;;;;5.00;4.03;;;22.00;67.80;;;;;;5017652;28;20423;-81
2022/10/18 04:08:36;;;;;;;4.33;4.03;;;22.00;67.70;;;;;;5024553;28;20483;-80
2022/10/18 04:11:08;;;;;;;4.33;4.00;;;22.00;67.90;;;;;;5021948;28;20452;-83
2022/10/18 04:13:36;;;;;;;4.07;3.77;;;22.00;68.00;;;;;;5025648;28;20455;-82
2022/10/18 04:16:05;;;;;;;4.23;3.93;;;22.00;68.80;;;;;;5035272;28;20462;-82
2022/10/18 04:18:35;;;;;;;4.70;3.90;;;22.00;67.90;;;;;;5027439;28;20453;-82
2022/10/18 04:21:03;;;;;;;4.07;3.67;;;22.00;67.90;;;;;;5027025;28;21054;-82
2022/10/18 04:23:31;;;;;;;4.33;3.97;;;22.00;67.90;;;;;;5033867;28;20551;-82
2022/10/18 04:26:05;;;;;;;4.13;3.77;;;22.00;68.00;;;;;;5033940;28;20475;-82
2022/10/18 04:28:34;;;;;;;3.70;3.50;;;22.00;68.10;;;;;;5027488;28;20444;-82
2022/10/18 04:31:02;;;;;;;4.80;4.40;;;22.00;67.90;;;;;;5032143;28;20539;-82
2022/10/18 04:33:30;;;;;;;4.50;4.10;;;22.00;68.00;;;;;;5027745;28;20460;-82
2022/10/18 04:36:00;;;;;;;4.30;4.00;;;22.00;68.00;;;;;;5033344;28;20447;-82
2022/10/18 04:38:28;;;;;;;4.80;4.40;;;21.90;67.80;;;;;;5033551;28;20453;-81
2022/10/18 04:40:57;;;;;;;3.63;3.40;;;21.90;68.00;;;;;;5033482;28;20471;-81
2022/10/18 04:43:25;;;;;;;4.30;4.00;;;22.00;68.00;;;;;;5033506;28;20463;-81
2022/10/18 04:45:53;;;;;;;4.27;3.97;;;21.90;67.90;;;;;;5029329;28;20531;-82
2022/10/18 04:48:22;;;;;;;3.97;3.67;;;21.90;67.70;;;;;;5026216;28;20538;-81
2022/10/18 04:50:50;;;;;;;4.20;3.90;;;21.90;67.90;;;;;;5023877;28;20414;-80
2022/10/18 04:53:20;;;;;;;4.13;3.80;;;22.00;68.10;;;;;;5034990;28;20444;-81
2022/10/18 04:55:49;;;;;;;3.90;3.60;;;22.00;68.00;;;;;;5034452;28;20455;-81
2022/10/18 04:58:17;;;;;;;4.30;4.00;;;21.90;67.80;;;;;;5037057;28;20452;-81
2022/10/18 05:00:46;;;;;;;3.80;3.50;;;22.00;67.90;;;;;;5035459;28;20474;-82
2022/10/18 05:03:14;;;;;;;3.80;3.50;;;21.90;67.90;;;;;;5035933;28;20434;-82
2022/10/18 05:05:44;;;;;;;4.03;3.63;;;21.90;67.90;;;;;;5039895;28;20518;-81
2022/10/18 05:08:32;;;;;;;4.30;4.00;;;21.90;67.90;;;;;;5040242;28;20414;-80
2022/10/18 05:11:00;;;;;;;3.97;3.70;;;21.90;68.00;;;;;;5035004;28;20519;-81
2022/10/18 05:13:29;;;;;;;3.90;3.60;;;21.90;68.00;;;;;;5033347;28;20475;-79
2022/10/18 05:15:58;;;;;;;3.93;3.63;;;22.00;68.00;;;;;;5023744;28;20459;-81
2022/10/18 05:18:26;;;;;;;3.87;3.63;;;21.90;67.80;;;;;;5021747;28;20450;-80
2022/10/18 05:20:54;;;;;;;3.40;3.20;;;21.90;67.90;;;;;;5034186;28;20481;-81
2022/10/18 05:23:23;;;;;;;4.00;3.70;;;21.90;68.60;;;;;;5032353;28;20475;-80
2022/10/18 05:25:52;;;;;;;3.97;3.70;;;21.90;67.90;;;;;;5034157;28;20453;-81
2022/10/18 05:28:23;;;;;;;4.07;3.77;;;21.90;68.00;;;;;;5029242;28;20463;-80
2022/10/18 05:31:10;;;;;;;3.80;3.50;;;21.90;67.90;;;;;;5027289;28;20481;-80
2022/10/18 05:33:39;;;;;;;3.50;3.27;;;21.90;68.20;;;;;;5033278;28;20550;-81
2022/10/18 05:36:07;;;;;;;3.50;3.20;;;21.90;68.10;;;;;;5027857;28;20456;-81
2022/10/18 05:38:38;;;;;;;3.70;3.50;;;21.90;67.90;;;;;;5033189;28;20483;-80
2022/10/18 05:41:08;;;;;;;3.70;3.50;;;21.90;68.20;;;;;;5033203;28;20471;-81
2022/10/18 05:43:37;;;;;;;3.60;3.40;;;21.90;68.20;;;;;;5024437;28;20455;-78
2022/10/18 05:46:06;;;;;;;3.70;3.50;;;21.90;68.10;;;;;;5033358;28;20454;-81
2022/10/18 05:48:42;;;;;;;4.23;3.77;;;21.90;68.10;;;;;;5033029;28;20459;-81
2022/10/18 05:51:10;;;;;;;3.80;3.50;;;21.80;68.00;;;;;;5022124;28;20458;-81
2022/10/18 05:53:38;;;;;;;3.70;3.43;;;21.80;68.10;;;;;;5026045;28;20490;-81
2022/10/18 05:56:10;;;;;;;3.60;3.40;;;21.80;68.30;;;;;;5032990;28;20440;-82
2022/10/18 05:58:39;;;;;;;3.77;3.47;;;21.80;68.10;;;;;;5032129;28;20526;-80
2022/10/18 06:01:07;;;;;;;3.73;3.53;;;21.80;68.10;;;;;;5025875;28;20554;-80
2022/10/18 06:03:36;;;;;;;3.23;3.07;;;21.90;68.00;;;;;;5032346;28;20454;-79
2022/10/18 06:06:05;;;;;;;3.40;3.20;;;21.90;67.90;;;;;;5023874;28;20450;-79
2022/10/18 06:08:34;;;;;;;4.00;3.70;;;21.80;68.00;;;;;;5032080;28;20474;-79
2022/10/18 06:11:08;;;;;;;3.17;2.97;;;21.90;68.10;;;;;;5031841;28;20452;-79
2022/10/18 06:13:40;;;;;;;3.43;3.23;;;21.90;67.90;;;;;;5026003;28;20547;-82
2022/10/18 06:16:08;;;;;;;3.53;3.33;;;21.90;68.00;;;;;;5037352;28;20430;-81
2022/10/18 06:18:36;;;;;;;3.57;3.30;;;21.90;68.10;;;;;;5035526;28;20434;-79
2022/10/18 06:21:05;;;;;;;3.37;3.17;;;21.80;68.00;;;;;;5025280;28;20464;-80
2022/10/18 06:23:33;;;;;;;3.30;3.10;;;21.80;67.90;;;;;;5026430;28;20487;-79
2022/10/18 06:26:01;;;;;;;3.50;3.30;;;21.80;68.00;;;;;;5034269;28;20551;-79
2022/10/18 06:28:33;;;;;;;3.57;3.37;;;21.80;68.20;;;;;;5025872;28;20460;-79
2022/10/18 06:31:01;;;;;;;3.50;3.30;;;21.80;68.00;;;;;;5028945;28;20457;-81
2022/10/18 06:33:30;;;;;;;3.93;3.53;;;21.80;68.00;;;;;;5032561;28;20475;-81
2022/10/18 06:35:59;;;;;;;3.33;3.13;;;21.80;68.00;;;;;;5023069;28;20425;-82
2022/10/18 06:38:27;;;;;;;3.57;3.37;;;21.80;68.20;;;;;;5027083;28;20436;-81
2022/10/18 06:40:54;;;;;;;3.60;3.30;;;21.80;67.90;;;;;;5025457;28;20482;-79
2022/10/18 06:43:23;;;;;;;3.63;3.33;;;21.80;68.20;;;;;;5030260;28;20478;-80
2022/10/18 06:45:52;;;;;;;3.63;3.33;;;21.80;68.00;;;;;;5031392;28;20455;-81
2022/10/18 06:48:20;;;;;;;3.53;3.33;;;21.80;68.00;;;;;;5035269;28;20433;-81
2022/10/18 06:50:53;;;;;;;3.40;3.20;;;21.80;68.10;;;;;;5034833;28;20451;-82
2022/10/18 06:53:21;;;;;;;3.57;3.37;;;21.90;68.20;;;;;;5034401;28;20477;-81
2022/10/18 06:55:49;;;;;;;4.20;3.90;;;21.80;67.80;;;;;;5034503;28;20422;-81
2022/10/18 06:58:17;;;;;;;3.53;3.33;;;21.80;68.00;;;;;;5035112;28;20451;-81
2022/10/18 07:00:45;;;;;;;4.80;4.40;;;21.80;68.20;;;;;;5036806;28;20467;-81
2022/10/18 07:03:15;;;;;;;4.93;4.53;;;21.90;67.90;;;;;;5032003;28;20915;-80
2022/10/18 07:05:44;;;;;;;4.93;4.50;;;21.90;68.00;;;;;;5038392;28;20455;-81
2022/10/18 07:08:12;;;;;;;4.90;4.50;;;21.80;68.10;;;;;;5044396;28;20455;-81
2022/10/18 07:10:43;;;;;;;5.17;4.77;;;21.80;68.10;;;;;;5042362;28;20449;-78
2022/10/18 07:13:11;;;;;;;5.93;5.33;;;21.80;67.90;;;;;;5044137;28;20545;-81
2022/10/18 07:16:04;;;;;;;5.97;5.07;;;21.90;68.10;;;;;;5041386;28;20492;-80
2022/10/18 07:18:34;;;;;;;6.53;5.93;;;21.80;67.90;;;;;;5036449;28;20479;-80
2022/10/18 07:21:03;;;;;;;6.67;5.97;;;21.80;68.10;;;;;;5040910;28;20475;-81
2022/10/18 07:23:32;;;;;;;6.50;5.87;;;21.80;68.00;;;;;;5039843;28;20458;-81
2022/10/18 07:26:01;;;;;;;7.40;6.70;;;21.80;67.90;;;;;;5036745;28;20452;-83
2022/10/18 07:28:29;;;;;;;7.37;6.67;;;21.80;67.90;;;;;;5050523;28;20459;-83
2022/10/18 07:30:57;;;;;;;7.50;6.70;;;21.80;67.90;;;;;;5054202;28;20490;-81
2022/10/18 07:33:33;;;;;;;7.20;6.00;;;21.80;68.10;;;;;;5051086;28;20490;-80
2022/10/18 07:36:02;;;;;;;7.37;6.47;;;21.80;68.00;;;;;;5048355;28;20456;-82
2022/10/18 07:38:30;;;;;;;8.17;7.07;;;21.80;68.10;;;;;;5044080;28;20444;-84
2022/10/18 07:40:58;;;;;;;8.87;7.63;;;21.80;68.10;;;;;;5051736;28;20487;-84
2022/10/18 07:43:26;;;;;;;11.60;8.50;;;21.80;68.00;;;;;;5050263;28;20467;-82
2022/10/18 07:45:54;;;;;;;11.70;9.27;;;21.80;67.70;;;;;;5046802;28;20451;-82
2022/10/18 07:48:22;;;;;;;11.40;9.10;;;21.80;67.80;;;;;;5052619;28;20430;-84
2022/10/18 07:50:52;;;;;;;14.20;10.37;;;21.80;67.50;;;;;;5051250;28;20448;-83
2022/10/18 07:53:19;;;;;;;16.07;9.57;;;21.90;67.60;;;;;;5044277;28;20475;-82
2022/10/18 07:55:48;;;;;;;14.17;9.83;;;21.90;67.40;;;;;;5033256;28;20459;-82
2022/10/18 07:58:15;;;;;;;12.70;9.40;;;21.90;67.20;;;;;;5018968;28;20432;-81
2022/10/18 08:00:44;;;;;;;12.13;9.57;;;21.90;67.30;;;;;;5025127;28;20455;-81
2022/10/18 08:03:11;;;;;;;10.80;9.30;;;22.00;67.50;;;;;;5030566;28;20451;-81
2022/10/18 08:05:39;;;;;;;11.50;9.60;;;22.00;67.40;;;;;;5038988;28;20454;-83
2022/10/18 08:08:08;;;;;;;11.43;9.10;;;22.00;67.50;;;;;;5041767;28;20418;-82
2022/10/18 08:10:37;;;;;;;11.43;8.70;;;22.10;67.40;;;;;;5040761;28;20444;-82
2022/10/18 08:13:05;;;;;;;12.70;9.60;;;22.10;67.40;;;;;;5042015;28;20463;-82
2022/10/18 08:15:32;;;;;;;10.97;9.00;;;22.20;67.30;;;;;;5043253;28;20456;-83
2022/10/18 08:18:00;;;;;;;12.27;8.90;;;22.20;67.20;;;;;;5042275;28;20437;-82
2022/10/18 08:20:29;;;;;;;11.00;8.13;;;22.20;67.30;;;;;;5045977;28;20436;-84
2022/10/18 08:22:58;;;;;;;10.80;8.33;;;22.30;67.20;;;;;;5046717;28;20504;-84
2022/10/18 08:25:29;;;;;;;8.77;7.50;;;22.40;67.30;;;;;;5046015;28;20426;-83
2022/10/18 08:27:57;;;;;;;14.17;8.43;;;22.50;66.80;;;;;;5044985;28;20453;-80
2022/10/18 08:30:25;;;;;;;10.17;8.60;;;22.50;66.50;;;;;;5042068;28;20414;-83
2022/10/18 08:32:53;;;;;;;9.63;8.27;;;22.60;66.70;;;;;;5032472;28;20475;-82
2022/10/18 08:35:21;;;;;;;10.80;7.60;;;22.60;66.50;;;;;;5042001;28;20439;-83
2022/10/18 08:37:49;;;;;;;10.57;7.30;;;22.60;66.50;;;;;;5042332;28;20447;-83
2022/10/18 08:40:17;;;;;;;8.83;7.90;;;22.70;66.30;;;;;;5043288;28;20443;-83
2022/10/18 08:42:57;;;;;;;12.57;7.80;;;22.70;66.40;;;;;;5043098;28;20487;-83
2022/10/18 08:45:26;;;;;;;9.73;7.37;;;22.80;66.40;;;;;;5043052;28;20454;-83
2022/10/18 08:48:16;;;;;;;9.77;6.93;;;22.90;66.20;;;;;;5033913;28;20455;-83
2022/10/18 08:50:44;;;;;;;8.27;6.97;;;22.90;66.00;;;;;;5043070;28;20418;-84
2022/10/18 08:53:15;;;;;;;9.70;7.30;;;22.90;65.80;;;;;;5042869;28;20441;-83
2022/10/18 08:55:45;;;;;;;7.97;7.17;;;22.90;66.00;;;;;;5045254;28;20422;-83
2022/10/18 08:58:16;;;;;;;9.50;6.90;;;22.90;66.00;;;;;;5045470;28;20457;-85
2022/10/18 09:00:51;;;;;;;7.57;6.77;;;22.90;66.00;;;;;;5043604;28;20447;-83
2022/10/18 09:03:26;;;;;;;9.20;7.23;;;22.90;66.00;;;;;;5044313;28;20482;-83
2022/10/18 09:05:55;;;;;;;7.97;6.97;;;22.90;66.00;;;;;;5042599;28;20501;-83
2022/10/18 09:08:43;;;;;;;7.90;6.90;;;22.90;66.00;;;;;;5043472;28;20447;-82
2022/10/18 09:11:20;;;;;;;11.23;7.03;;;23.00;65.90;;;;;;5045760;28;20442;-82
2022/10/18 09:14:02;;;;;;;6.90;6.20;;;23.00;66.20;;;;;;5045238;28;20431;-82
2022/10/18 09:16:34;;;;;;;7.10;6.40;;;23.00;65.90;;;;;;5045537;28;20436;-84
2022/10/18 09:19:06;;;;;;;8.90;6.90;;;23.10;65.90;;;;;;5046079;28;20424;-83
2022/10/18 09:21:39;;;;;;;8.67;6.53;;;23.20;65.80;;;;;;5035882;28;20471;-82
2022/10/18 09:24:11;;;;;;;7.40;5.60;;;23.30;65.80;;;;;;5036536;28;20448;-82
2022/10/18 09:26:42;;;;;;;6.77;5.70;;;23.50;65.30;;;;;;5044532;28;20447;-83
2022/10/18 09:29:29;;;;;;;7.97;6.23;;;23.50;65.10;;;;;;5045291;28;20431;-83
2022/10/18 09:32:00;;;;;;;9.37;6.50;;;23.70;65.00;;;;;;5046158;28;20443;-85
2022/10/18 09:34:31;;;;;;;7.53;6.37;;;23.70;64.70;;;;;;5046089;28;20520;-84
2022/10/18 09:36:59;;;;;;;9.93;6.30;;;23.70;64.80;;;;;;5036607;28;20528;-83
2022/10/18 09:39:29;;;;;;;6.47;5.83;;;23.70;64.50;;;;;;5044930;28;20445;-83
2022/10/18 09:41:58;;;;;;;7.87;6.53;;;23.70;64.80;;;;;;5047170;28;20464;-83
2022/10/18 09:44:30;;;;;;;9.27;6.67;;;23.90;65.40;;;;;;5046109;28;20429;-83
2022/10/18 09:47:00;;;;;;;6.50;5.53;;;24.00;64.60;;;;;;5045751;28;20424;-82
2022/10/18 09:49:29;;;;;;;9.17;6.03;;;24.20;64.30;;;;;;5046170;28;20453;-83
2022/10/18 09:51:57;;;;;;;5.60;5.10;;;24.20;63.70;;;;;;5043795;28;20468;-84
2022/10/18 09:54:27;;;;;;;6.40;5.80;;;24.30;64.70;;;;;;5039875;28;20428;-85
2022/10/18 09:56:58;;;;;;;7.50;5.83;;;24.60;64.50;;;;;;5046677;28;20410;-83
2022/10/18 09:59:38;;;;;;;8.50;5.70;;;24.90;64.30;;;;;;5047896;28;20470;-82
2022/10/18 10:02:07;;;;;;;5.60;4.70;;;25.20;64.00;;;;;;5043922;28;20438;-84
2022/10/18 10:04:35;;;;;;;7.90;5.10;;;25.60;63.90;;;;;;5042730;28;20444;-82
2022/10/18 10:07:04;;;;;;;6.33;5.23;;;25.80;63.00;;;;;;5043646;28;20504;-82
2022/10/18 10:09:37;;;;;;;5.83;5.17;;;26.10;63.00;;;;;;5041150;28;20451;-83
2022/10/18 10:12:05;;;;;;;5.60;5.10;;;26.50;62.80;;;;;;5032623;28;20463;-83
2022/10/18 10:14:42;;;;;;;5.97;5.40;;;26.80;62.00;;;;;;5042865;28;20422;-83
2022/10/18 10:17:21;;;;;;;5.63;4.70;;;26.90;61.70;;;;;;5043553;28;20432;-83
2022/10/18 10:19:56;;;;;;;5.40;4.90;;;27.30;61.80;;;;;;5043349;28;20444;-83
2022/10/18 10:22:26;;;;;;;6.30;4.77;;;27.70;61.00;;;;;;5041607;28;20479;-82
2022/10/18 10:24:55;;;;;;;6.80;5.10;;;27.90;60.80;;;;;;5043192;28;20414;-82
2022/10/18 10:27:28;;;;;;;4.70;4.40;;;28.20;59.90;;;;;;5036644;28;20464;-83
2022/10/18 10:29:59;;;;;;;5.47;4.20;;;28.40;59.50;;;;;;5045867;28;20444;-82
2022/10/18 10:32:45;;;;;;;4.97;4.40;;;28.80;59.40;;;;;;5042026;28;20489;-82
2022/10/18 10:35:24;;;;;;;5.00;4.50;;;29.10;58.60;;;;;;5044475;28;20453;-82
2022/10/18 10:38:22;;;;;;;4.73;4.33;;;29.40;58.50;;;;;;5037713;28;20454;-82
2022/10/18 10:40:50;;;;;;;5.50;4.80;;;29.50;57.50;;;;;;5043022;28;20451;-82
2022/10/18 10:43:19;;;;;;;5.23;4.40;;;29.70;57.80;;;;;;5038167;28;20520;-83
2022/10/18 10:46:06;;;;;;;4.47;4.10;;;29.80;57.60;;;;;;5044537;28;20864;-82
2022/10/18 10:48:39;;;;;;;5.27;4.40;;;30.00;57.60;;;;;;5044658;28;20447;-82
2022/10/18 10:51:08;;;;;;;5.50;4.30;;;30.30;57.40;;;;;;5045000;28;20443;-83
2022/10/18 10:53:49;;;;;;;4.40;4.10;;;30.50;56.50;;;;;;5042991;28;20485;-82
2022/10/18 10:56:25;;;;;;;4.87;4.47;;;30.70;56.60;;;;;;5041829;28;20434;-82
2022/10/18 10:58:54;;;;;;;6.43;4.60;;;30.90;56.50;;;;;;5034643;28;20443;-83
2022/10/18 11:01:26;;;;;;;4.80;4.40;;;31.30;56.00;;;;;;5044588;28;20478;-84
2022/10/18 11:03:55;;;;;;;5.30;4.70;;;31.80;55.10;;;;;;5043508;28;20470;-81
2022/10/18 11:06:46;;;;;;;5.00;4.60;;;32.40;53.90;;;;;;5042680;28;20447;-81
2022/10/18 11:09:38;;;;;;;4.73;4.33;;;33.20;51.60;;;;;;5043236;28;20440;-83
2022/10/18 11:12:13;;;;;;;4.60;4.20;;;34.30;50.90;;;;;;5047082;28;20467;-81
2022/10/18 11:14:43;;;;;;;4.00;3.70;;;35.40;48.60;;;;;;5039910;28;20442;-82
2022/10/18 11:17:20;;;;;;;4.27;4.07;;;36.30;46.50;;;;;;5047459;28;20439;-82
2022/10/18 11:19:59;;;;;;;3.67;3.47;;;37.30;44.60;;;;;;5046589;28;20451;-82
2022/10/18 11:22:29;;;;;;;4.10;3.90;;;37.90;43.20;;;;;;5046664;28;20482;-82
2022/10/18 11:24:58;;;;;;;3.73;3.53;;;38.60;42.00;;;;;;5045358;28;20455;-84
2022/10/18 11:27:27;;;;;;;3.50;3.30;;;39.00;40.10;;;;;;5046636;28;20454;-82
2022/10/18 11:30:11;;;;;;;3.90;3.70;;;38.10;39.60;;;;;;5043483;28;20490;-84
2022/10/18 11:32:43;;;;;;;3.70;3.50;;;37.90;40.00;;;;;;5041897;28;20459;-82
2022/10/18 11:35:22;;;;;;;3.63;3.43;;;38.50;40.60;;;;;;5046124;28;20511;-83
2022/10/18 11:37:58;;;;;;;3.50;3.30;;;39.00;40.20;;;;;;5046665;28;20441;-82
2022/10/18 11:40:34;;;;;;;3.57;3.40;;;39.90;38.70;;;;;;5046054;28;20423;-83
2022/10/18 11:43:07;;;;;;;3.37;3.13;;;40.50;38.10;;;;;;5046240;28;20455;-83
2022/10/18 11:45:38;;;;;;;3.20;3.00;;;41.00;36.70;;;;;;5044227;28;20441;-79
2022/10/18 11:48:18;;;;;;;3.03;2.93;;;41.60;36.10;;;;;;5039486;28;20448;-83
2022/10/18 11:50:49;;;;;;;13.43;3.10;;;41.90;35.40;;;;;;5040270;28;20439;-82
2022/10/18 11:53:20;;;;;;;3.40;3.27;;;41.30;34.60;;;;;;5044295;28;20466;-82
2022/10/18 11:55:55;;;;;;;2.47;2.37;;;41.20;35.50;;;;;;5044849;28;20446;-83
2022/10/18 11:58:30;;;;;;;2.50;2.40;;;41.70;35.70;;;;;;5043912;28;20435;-82
2022/10/18 12:01:01;;;;;;;3.00;2.80;;;42.30;34.90;;;;;;5041829;28;20433;-81
2022/10/18 12:03:39;;;;;;;2.90;2.70;;;42.70;34.40;;;;;;5038682;28;20471;-82
2022/10/18 12:06:12;;;;;;;2.70;2.60;;;42.90;34.10;;;;;;5038887;28;20447;-82
2022/10/18 12:08:41;;;;;;;3.00;2.90;;;43.00;32.80;;;;;;5039673;28;20423;-82
2022/10/18 12:11:13;;;;;;;2.93;2.73;;;42.10;33.30;;;;;;5038971;28;20447;-82
2022/10/18 12:13:44;;;;;;;3.43;3.33;;;41.30;35.60;;;;;;5037750;28;20537;-82
2022/10/18 12:16:13;;;;;;;3.07;2.87;;;41.10;36.30;;;;;;5038766;28;20435;-82
2022/10/18 12:18:50;;;;;;;2.80;2.70;;;41.70;35.20;;;;;;5038481;28;20439;-82
2022/10/18 12:21:22;;;;;;;3.20;3.00;;;42.40;34.30;;;;;;5038976;28;20529;-82
2022/10/18 12:23:54;;;;;;;2.57;2.47;;;42.80;33.70;;;;;;5039358;28;20446;-83
2022/10/18 12:26:22;;;;;;;2.17;2.10;;;43.30;33.10;;;;;;5043331;28;20449;-81
2022/10/18 12:28:57;;;;;;;2.60;2.50;;;43.70;32.80;;;;;;5043998;28;20454;-82
2022/10/18 12:31:28;;;;;;;2.57;2.40;;;43.90;32.30;;;;;;5044082;28;20450;-81
2022/10/18 12:34:00;;;;;;;2.93;2.83;;;44.00;31.90;;;;;;5044097;28;20481;-81
2022/10/18 12:36:47;;;;;;;2.80;2.60;;;44.10;31.70;;;;;;5043401;28;20455;-82
2022/10/18 12:39:17;;;;;;;2.13;2.10;;;44.30;31.50;;;;;;5037237;28;20447;-82
2022/10/18 12:42:04;;;;;;;2.40;2.30;;;44.40;31.20;;;;;;5043197;28;20471;-82
2022/10/18 12:44:33;;;;;;;2.73;2.53;;;42.90;32.40;;;;;;5043663;28;20443;-83
2022/10/18 12:47:01;;;;;;;2.57;2.47;;;41.50;33.60;;;;;;5043538;28;20443;-80
2022/10/18 12:49:32;;;;;;;2.80;2.70;;;40.10;35.60;;;;;;5042390;28;20432;-81
2022/10/18 12:52:01;;;;;;;3.17;3.00;;;38.90;37.20;;;;;;5042741;28;20486;-82
2022/10/18 12:54:29;;;;;;;3.10;3.00;;;38.10;38.60;;;;;;5032880;28;20478;-82
2022/10/18 12:56:58;;;;;;;3.30;3.10;;;37.90;40.50;;;;;;5042506;28;20457;-82
2022/10/18 12:59:53;;;;;;;3.90;3.50;;;37.40;40.40;;;;;;5041820;28;20451;-81
2022/10/18 13:02:31;;;;;;;4.03;3.73;;;36.70;40.80;;;;;;5042133;28;20467;-82
2022/10/18 13:05:01;;;;;;;3.50;3.20;;;36.10;41.40;;;;;;5042391;28;20454;-82